sensor_id;sensor_type;location;lat;lon;timestamp;pressure;altitude;pressure_sealevel;temperature;humidity
23643;BME280;11998;55.788;37.572;2023-07-13T00:00:23;97693.00;;;88.63;11.35
23643;BME280;11998;55.788;37.572;2023-07-13T00:01:23;97692.28;;;87.96;11.17
23643;BME280;11998;55.788;37.572;2023-07-13T00:02:24;97687.19;;;88.31;11.34
23643;BME280;11998;55.788;37.572;2023-07-13T00:03:26;97692.50;;;89.56;11.04
23643;BME280;11998;55.788;37.572;2023-07-13T00:04:27;97696.84;;;88.39;11.42
23643;BME280;11998;55.788;37.572;2023-07-13T00:05:28;97684.66;;;87.85;11.47
23643;BME280;11998;55.788;37.572;2023-07-13T00:06:28;97679.94;;;87.99;11.30
23643;BME280;11998;55.788;37.572;2023-07-13T00:07:33;97683.25;;;87.86;11.26
23643;BME280;11998;55.788;37.572;2023-07-13T00:08:34;97678.44;;;87.66;11.69
23643;BME280;11998;55.788;37.572;2023-07-13T00:09:35;97674.09;;;87.59;11.33
23643;BME280;11998;55.788;37.572;2023-07-13T00:10:40;97679.09;;;88.76;11.26
23643;BME280;11998;55.788;37.572;2023-07-13T00:11:41;97688.50;;;88.55;11.47
23643;BME280;11998;55.788;37.572;2023-07-13T00:12:42;97689.13;;;88.71;11.20
23643;BME280;11998;55.788;37.572;2023-07-13T00:13:43;97695.19;;;89.98;11.27
23643;BME280;11998;55.788;37.572;2023-07-13T00:14:44;97701.38;;;89.63;11.04
23643;BME280;11998;55.788;37.572;2023-07-13T00:15:44;97703.00;;;88.76;11.12
23643;BME280;11998;55.788;37.572;2023-07-13T00:16:45;97690.78;;;88.29;11.28
23643;BME280;11998;55.788;37.572;2023-07-13T00:17:46;97687.38;;;88.68;11.46
23643;BME280;11998;55.788;37.572;2023-07-13T00:18:47;97691.19;;;89.76;11.13
23643;BME280;11998;55.788;37.572;2023-07-13T00:19:48;97697.09;;;89.03;11.38
23643;BME280;11998;55.788;37.572;2023-07-13T00:20:48;97696.00;;;87.79;11.33
23643;BME280;11998;55.788;37.572;2023-07-13T00:21:49;97684.88;;;89.08;11.31
23643;BME280;11998;55.788;37.572;2023-07-13T00:22:50;97695.41;;;89.63;11.26
23643;BME280;11998;55.788;37.572;2023-07-13T00:23:51;97696.94;;;89.28;11.24
23643;BME280;11998;55.788;37.572;2023-07-13T00:24:53;97690.50;;;89.58;11.34
23643;BME280;11998;55.788;37.572;2023-07-13T00:25:56;97695.31;;;89.81;11.15
23643;BME280;11998;55.788;37.572;2023-07-13T00:26:57;97686.47;;;89.73;11.05
23643;BME280;11998;55.788;37.572;2023-07-13T00:27:58;97689.72;;;89.67;11.11
23643;BME280;11998;55.788;37.572;2023-07-13T00:28:58;97692.72;;;89.67;11.35
23643;BME280;11998;55.788;37.572;2023-07-13T00:29:59;97689.97;;;89.52;11.25
23643;BME280;11998;55.788;37.572;2023-07-13T00:31:00;97694.28;;;90.05;11.24
23643;BME280;11998;55.788;37.572;2023-07-13T00:32:05;97690.50;;;90.04;10.87
23643;BME280;11998;55.788;37.572;2023-07-13T00:33:06;97686.75;;;89.67;11.26
23643;BME280;11998;55.788;37.572;2023-07-13T00:34:07;97682.97;;;88.86;11.19
23643;BME280;11998;55.788;37.572;2023-07-13T00:35:08;97688.16;;;88.68;11.52
23643;BME280;11998;55.788;37.572;2023-07-13T00:36:10;97684.91;;;89.18;11.08
23643;BME280;11998;55.788;37.572;2023-07-13T00:37:10;97676.53;;;89.70;11.31
23643;BME280;11998;55.788;37.572;2023-07-13T00:38:11;97681.00;;;89.89;11.12
23643;BME280;11998;55.788;37.572;2023-07-13T00:39:12;97685.94;;;90.13;11.01
23643;BME280;11998;55.788;37.572;2023-07-13T00:40:14;97690.56;;;90.33;11.30
23643;BME280;11998;55.788;37.572;2023-07-13T00:41:14;97679.66;;;88.64;11.33
23643;BME280;11998;55.788;37.572;2023-07-13T00:42:15;97675.50;;;88.77;11.39
23643;BME280;11998;55.788;37.572;2023-07-13T00:43:20;97687.22;;;90.10;11.26
23643;BME280;11998;55.788;37.572;2023-07-13T00:44:21;97690.56;;;90.53;11.21
23643;BME280;11998;55.788;37.572;2023-07-13T00:46:26;97703.13;;;91.19;10.98
23643;BME280;11998;55.788;37.572;2023-07-13T00:47:27;97707.25;;;90.75;11.29
23643;BME280;11998;55.788;37.572;2023-07-13T00:48:32;97700.28;;;91.62;10.89
23643;BME280;11998;55.788;37.572;2023-07-13T00:49:35;97693.63;;;91.32;11.04
23643;BME280;11998;55.788;37.572;2023-07-13T00:50:37;97692.94;;;90.83;11.13
23643;BME280;11998;55.788;37.572;2023-07-13T00:52:07;97687.44;;;89.95;11.32
23643;BME280;11998;55.788;37.572;2023-07-13T00:53:10;97689.66;;;89.48;11.27
23643;BME280;11998;55.788;37.572;2023-07-13T00:54:15;97674.28;;;89.25;11.44
23643;BME280;11998;55.788;37.572;2023-07-13T00:55:18;97672.91;;;89.62;11.24
23643;BME280;11998;55.788;37.572;2023-07-13T00:56:19;97675.41;;;90.31;11.29
23643;BME280;11998;55.788;37.572;2023-07-13T00:57:20;97665.28;;;89.98;11.15
23643;BME280;11998;55.788;37.572;2023-07-13T00:58:23;97679.22;;;90.42;11.11
23643;BME280;11998;55.788;37.572;2023-07-13T00:59:24;97671.81;;;90.52;11.10
23643;BME280;11998;55.788;37.572;2023-07-13T01:00:25;97679.22;;;90.42;11.01
23643;BME280;11998;55.788;37.572;2023-07-13T01:01:27;97680.50;;;90.58;11.26
23643;BME280;11998;55.788;37.572;2023-07-13T01:02:28;97674.41;;;89.54;11.25
23643;BME280;11998;55.788;37.572;2023-07-13T01:03:29;97671.09;;;89.96;11.26
23643;BME280;11998;55.788;37.572;2023-07-13T01:04:29;97675.34;;;89.93;11.33
23643;BME280;11998;55.788;37.572;2023-07-13T01:05:32;97658.50;;;89.51;11.36
23643;BME280;11998;55.788;37.572;2023-07-13T01:06:36;97666.84;;;89.99;11.15
23643;BME280;11998;55.788;37.572;2023-07-13T01:07:37;97669.59;;;90.43;10.88
23643;BME280;11998;55.788;37.572;2023-07-13T01:08:38;97666.16;;;89.71;11.27
23643;BME280;11998;55.788;37.572;2023-07-13T01:09:40;97659.38;;;89.71;11.13
23643;BME280;11998;55.788;37.572;2023-07-13T01:10:41;97674.47;;;90.19;11.02
23643;BME280;11998;55.788;37.572;2023-07-13T01:11:41;97674.97;;;90.83;11.14
23643;BME280;11998;55.788;37.572;2023-07-13T01:12:42;97675.38;;;91.09;11.04
23643;BME280;11998;55.788;37.572;2023-07-13T01:13:42;97672.03;;;91.24;11.24
23643;BME280;11998;55.788;37.572;2023-07-13T01:14:44;97668.81;;;90.81;11.11
23643;BME280;11998;55.788;37.572;2023-07-13T01:15:49;97671.03;;;90.71;11.19
23643;BME280;11998;55.788;37.572;2023-07-13T01:16:51;97660.09;;;90.18;11.31
23643;BME280;11998;55.788;37.572;2023-07-13T01:17:52;97664.72;;;89.36;11.34
23643;BME280;11998;55.788;37.572;2023-07-13T01:18:54;97657.47;;;89.02;11.29
23643;BME280;11998;55.788;37.572;2023-07-13T01:19:55;97666.47;;;89.75;11.22
23643;BME280;11998;55.788;37.572;2023-07-13T01:21:03;97672.88;;;89.26;11.32
23643;BME280;11998;55.788;37.572;2023-07-13T01:22:13;97655.50;;;89.88;11.45
23643;BME280;11998;55.788;37.572;2023-07-13T01:23:14;97663.06;;;89.89;11.33
23643;BME280;11998;55.788;37.572;2023-07-13T01:24:15;97659.00;;;89.20;11.27
23643;BME280;11998;55.788;37.572;2023-07-13T01:25:15;97655.59;;;88.45;11.24
23643;BME280;11998;55.788;37.572;2023-07-13T01:26:16;97651.25;;;89.17;11.14
23643;BME280;11998;55.788;37.572;2023-07-13T01:27:21;97645.78;;;88.97;11.21
23643;BME280;11998;55.788;37.572;2023-07-13T01:28:24;97647.50;;;88.55;11.32
23643;BME280;11998;55.788;37.572;2023-07-13T01:29:27;97649.28;;;89.66;11.23
23643;BME280;11998;55.788;37.572;2023-07-13T01:30:27;97658.91;;;89.38;11.21
23643;BME280;11998;55.788;37.572;2023-07-13T01:31:28;97655.59;;;89.07;11.03
23643;BME280;11998;55.788;37.572;2023-07-13T01:32:28;97658.75;;;88.13;11.10
23643;BME280;11998;55.788;37.572;2023-07-13T01:33:29;97645.19;;;88.81;11.32
23643;BME280;11998;55.788;37.572;2023-07-13T01:34:30;97651.31;;;89.27;11.16
23643;BME280;11998;55.788;37.572;2023-07-13T01:35:30;97647.59;;;88.13;11.44
23643;BME280;11998;55.788;37.572;2023-07-13T01:36:30;97645.44;;;88.48;10.90
23643;BME280;11998;55.788;37.572;2023-07-13T01:37:31;97645.97;;;88.81;11.20
23643;BME280;11998;55.788;37.572;2023-07-13T01:38:34;97645.09;;;87.60;11.25
23643;BME280;11998;55.788;37.572;2023-07-13T01:39:35;97643.72;;;88.55;11.03
23643;BME280;11998;55.788;37.572;2023-07-13T01:40:36;97638.75;;;89.65;11.18
23643;BME280;11998;55.788;37.572;2023-07-13T01:41:37;97647.03;;;89.47;11.15
23643;BME280;11998;55.788;37.572;2023-07-13T01:42:38;97661.59;;;90.46;11.01
23643;BME280;11998;55.788;37.572;2023-07-13T01:43:38;97652.72;;;88.82;11.51
23643;BME280;11998;55.788;37.572;2023-07-13T01:44:39;97643.31;;;88.24;11.33
23643;BME280;11998;55.788;37.572;2023-07-13T01:45:40;97644.13;;;89.03;11.19
23643;BME280;11998;55.788;37.572;2023-07-13T01:46:40;97643.66;;;89.70;10.99
23643;BME280;11998;55.788;37.572;2023-07-13T01:47:41;97652.09;;;90.01;11.11
23643;BME280;11998;55.788;37.572;2023-07-13T01:48:41;97664.09;;;90.20;11.06
23643;BME280;11998;55.788;37.572;2023-07-13T01:49:42;97656.38;;;89.61;11.26
23643;BME280;11998;55.788;37.572;2023-07-13T01:50:42;97654.06;;;89.15;11.05
23643;BME280;11998;55.788;37.572;2023-07-13T01:51:43;97657.72;;;89.97;11.14
23643;BME280;11998;55.788;37.572;2023-07-13T01:52:44;97643.28;;;88.06;11.29
23643;BME280;11998;55.788;37.572;2023-07-13T01:53:44;97631.78;;;87.61;11.34
23643;BME280;11998;55.788;37.572;2023-07-13T01:54:45;97633.94;;;88.27;11.29
23643;BME280;11998;55.788;37.572;2023-07-13T01:55:45;97642.25;;;88.63;11.18
23643;BME280;11998;55.788;37.572;2023-07-13T01:56:46;97631.91;;;89.18;11.18
23643;BME280;11998;55.788;37.572;2023-07-13T01:57:46;97638.19;;;88.17;11.24
23643;BME280;11998;55.788;37.572;2023-07-13T01:58:48;97630.53;;;87.89;11.31
23643;BME280;11998;55.788;37.572;2023-07-13T01:59:49;97623.81;;;88.05;11.10
23643;BME280;11998;55.788;37.572;2023-07-13T02:00:51;97636.47;;;88.48;11.21
23643;BME280;11998;55.788;37.572;2023-07-13T02:01:52;97624.22;;;87.60;11.21
23643;BME280;11998;55.788;37.572;2023-07-13T02:02:52;97620.16;;;87.15;11.32
23643;BME280;11998;55.788;37.572;2023-07-13T02:03:53;97620.72;;;86.88;11.57
23643;BME280;11998;55.788;37.572;2023-07-13T02:04:53;97624.69;;;88.16;11.30
23643;BME280;11998;55.788;37.572;2023-07-13T02:05:54;97619.16;;;88.29;11.16
23643;BME280;11998;55.788;37.572;2023-07-13T02:06:54;97622.03;;;87.85;11.31
23643;BME280;11998;55.788;37.572;2023-07-13T02:07:55;97625.06;;;87.52;11.34
23643;BME280;11998;55.788;37.572;2023-07-13T02:08:57;97618.31;;;87.52;11.33
23643;BME280;11998;55.788;37.572;2023-07-13T02:09:58;97618.47;;;88.21;11.17
23643;BME280;11998;55.788;37.572;2023-07-13T02:10:58;97618.22;;;88.09;11.12
23643;BME280;11998;55.788;37.572;2023-07-13T02:11:59;97608.16;;;87.30;11.51
23643;BME280;11998;55.788;37.572;2023-07-13T02:12:59;97598.78;;;86.05;11.45
23643;BME280;11998;55.788;37.572;2023-07-13T02:14:00;97622.03;;;87.35;11.21
23643;BME280;11998;55.788;37.572;2023-07-13T02:15:03;97622.09;;;87.52;11.23
23643;BME280;11998;55.788;37.572;2023-07-13T02:16:04;97626.69;;;87.71;11.39
23643;BME280;11998;55.788;37.572;2023-07-13T02:17:05;97622.00;;;88.27;11.26
23643;BME280;11998;55.788;37.572;2023-07-13T02:18:06;97618.88;;;88.00;11.25
23643;BME280;11998;55.788;37.572;2023-07-13T02:19:07;97616.56;;;87.74;11.26
23643;BME280;11998;55.788;37.572;2023-07-13T02:20:08;97606.78;;;86.98;11.46
23643;BME280;11998;55.788;37.572;2023-07-13T02:21:09;97609.84;;;87.16;11.37
23643;BME280;11998;55.788;37.572;2023-07-13T02:22:10;97605.94;;;86.65;11.45
23643;BME280;11998;55.788;37.572;2023-07-13T02:23:11;97602.09;;;86.32;11.41
23643;BME280;11998;55.788;37.572;2023-07-13T02:24:12;97612.19;;;87.25;11.26
23643;BME280;11998;55.788;37.572;2023-07-13T02:25:17;97617.00;;;88.47;11.30
23643;BME280;11998;55.788;37.572;2023-07-13T02:26:18;97613.53;;;87.99;11.26
23643;BME280;11998;55.788;37.572;2023-07-13T02:27:19;97612.88;;;87.33;11.33
23643;BME280;11998;55.788;37.572;2023-07-13T02:28:19;97616.38;;;88.49;11.19
23643;BME280;11998;55.788;37.572;2023-07-13T02:29:20;97621.78;;;87.41;11.35
23643;BME280;11998;55.788;37.572;2023-07-13T02:30:20;97620.47;;;87.84;11.27
23643;BME280;11998;55.788;37.572;2023-07-13T02:31:22;97607.09;;;86.70;11.46
23643;BME280;11998;55.788;37.572;2023-07-13T02:32:23;97615.66;;;87.81;11.31
23643;BME280;11998;55.788;37.572;2023-07-13T02:33:25;97602.25;;;86.34;11.32
23643;BME280;11998;55.788;37.572;2023-07-13T02:34:26;97616.94;;;87.53;11.24
23643;BME280;11998;55.788;37.572;2023-07-13T02:35:26;97613.53;;;88.16;11.10
23643;BME280;11998;55.788;37.572;2023-07-13T02:36:27;97603.13;;;86.75;11.29
23643;BME280;11998;55.788;37.572;2023-07-13T02:37:27;97610.28;;;87.12;11.45
23643;BME280;11998;55.788;37.572;2023-07-13T02:38:28;97601.81;;;87.76;11.43
23643;BME280;11998;55.788;37.572;2023-07-13T02:39:28;97600.25;;;86.52;11.36
23643;BME280;11998;55.788;37.572;2023-07-13T02:40:29;97594.44;;;85.76;11.50
23643;BME280;11998;55.788;37.572;2023-07-13T02:41:29;97599.78;;;86.63;11.20
23643;BME280;11998;55.788;37.572;2023-07-13T02:42:30;97591.84;;;86.03;11.37
23643;BME280;11998;55.788;37.572;2023-07-13T02:43:30;97587.66;;;85.14;11.57
23643;BME280;11998;55.788;37.572;2023-07-13T02:44:31;97584.06;;;85.08;11.31
23643;BME280;11998;55.788;37.572;2023-07-13T02:45:31;97588.84;;;85.11;11.31
23643;BME280;11998;55.788;37.572;2023-07-13T02:46:34;97583.94;;;85.59;11.44
23643;BME280;11998;55.788;37.572;2023-07-13T02:47:36;97600.78;;;86.10;11.37
23643;BME280;11998;55.788;37.572;2023-07-13T02:48:37;97601.41;;;86.64;11.27
23643;BME280;11998;55.788;37.572;2023-07-13T02:49:38;97621.09;;;88.17;11.17
23643;BME280;11998;55.788;37.572;2023-07-13T02:50:39;97623.50;;;88.80;11.18
23643;BME280;11998;55.788;37.572;2023-07-13T02:51:39;97611.78;;;87.21;11.39
23643;BME280;11998;55.788;37.572;2023-07-13T02:52:40;97623.97;;;87.40;11.25
23643;BME280;11998;55.788;37.572;2023-07-13T02:53:40;97627.69;;;88.50;11.04
23643;BME280;11998;55.788;37.572;2023-07-13T02:54:41;97628.97;;;88.74;11.18
23643;BME280;11998;55.788;37.572;2023-07-13T02:55:41;97634.97;;;89.01;11.18
23643;BME280;11998;55.788;37.572;2023-07-13T02:56:47;97622.22;;;89.28;11.16
23643;BME280;11998;55.788;37.572;2023-07-13T02:57:48;97632.50;;;89.81;11.04
23643;BME280;11998;55.788;37.572;2023-07-13T02:58:49;97623.25;;;86.52;11.42
23643;BME280;11998;55.788;37.572;2023-07-13T02:59:50;97620.63;;;87.61;11.29
23643;BME280;11998;55.788;37.572;2023-07-13T03:00:50;97624.00;;;88.59;11.23
23643;BME280;11998;55.788;37.572;2023-07-13T03:01:51;97621.31;;;89.35;11.10
23643;BME280;11998;55.788;37.572;2023-07-13T03:02:52;97621.53;;;88.31;11.45
23643;BME280;11998;55.788;37.572;2023-07-13T03:03:53;97614.94;;;88.94;11.02
23643;BME280;11998;55.788;37.572;2023-07-13T03:04:55;97616.81;;;89.16;11.02
23643;BME280;11998;55.788;37.572;2023-07-13T03:06:00;97615.00;;;89.31;11.03
23643;BME280;11998;55.788;37.572;2023-07-13T03:07:03;97621.72;;;88.94;11.30
23643;BME280;11998;55.788;37.572;2023-07-13T03:08:04;97612.66;;;87.64;11.55
23643;BME280;11998;55.788;37.572;2023-07-13T03:09:04;97602.50;;;87.67;11.49
23643;BME280;11998;55.788;37.572;2023-07-13T03:10:06;97597.44;;;86.94;11.33
23643;BME280;11998;55.788;37.572;2023-07-13T03:11:09;97603.91;;;87.83;11.07
23643;BME280;11998;55.788;37.572;2023-07-13T03:12:11;97615.00;;;88.77;11.06
23643;BME280;11998;55.788;37.572;2023-07-13T03:13:11;97605.84;;;88.48;11.30
23643;BME280;11998;55.788;37.572;2023-07-13T03:14:12;97616.13;;;88.81;10.98
23643;BME280;11998;55.788;37.572;2023-07-13T03:15:15;97618.25;;;89.52;11.14
23643;BME280;11998;55.788;37.572;2023-07-13T03:16:16;97613.47;;;88.58;11.30
23643;BME280;11998;55.788;37.572;2023-07-13T03:17:17;97619.31;;;89.10;11.28
23643;BME280;11998;55.788;37.572;2023-07-13T03:18:18;97616.56;;;89.32;11.23
23643;BME280;11998;55.788;37.572;2023-07-13T03:19:19;97615.03;;;88.59;11.35
23643;BME280;11998;55.788;37.572;2023-07-13T03:20:19;97608.53;;;88.01;11.29
23643;BME280;11998;55.788;37.572;2023-07-13T03:21:20;97612.28;;;87.10;11.34
23643;BME280;11998;55.788;37.572;2023-07-13T03:22:21;97608.91;;;87.38;11.47
23643;BME280;11998;55.788;37.572;2023-07-13T03:23:22;97590.88;;;85.77;11.53
23643;BME280;11998;55.788;37.572;2023-07-13T03:24:23;97590.81;;;86.23;11.33
23643;BME280;11998;55.788;37.572;2023-07-13T03:25:25;97585.28;;;85.97;11.36
23643;BME280;11998;55.788;37.572;2023-07-13T03:26:26;97596.91;;;86.40;11.36
23643;BME280;11998;55.788;37.572;2023-07-13T03:27:26;97600.88;;;86.83;10.95
23643;BME280;11998;55.788;37.572;2023-07-13T03:28:27;97593.75;;;86.38;11.26
23643;BME280;11998;55.788;37.572;2023-07-13T03:29:28;97592.25;;;86.62;11.37
23643;BME280;11998;55.788;37.572;2023-07-13T03:30:28;97584.94;;;85.62;11.51
23643;BME280;11998;55.788;37.572;2023-07-13T03:31:32;97584.88;;;85.09;11.57
23643;BME280;11998;55.788;37.572;2023-07-13T03:32:34;97597.53;;;86.79;11.36
23643;BME280;11998;55.788;37.572;2023-07-13T03:33:34;97601.16;;;88.02;11.22
23643;BME280;11998;55.788;37.572;2023-07-13T03:34:35;97617.91;;;88.67;11.27
23643;BME280;11998;55.788;37.572;2023-07-13T03:35:40;97595.09;;;83.84;11.75
23643;BME280;11998;55.788;37.572;2023-07-13T03:36:40;97572.16;;;82.80;11.72
23643;BME280;11998;55.788;37.572;2023-07-13T03:37:41;97585.28;;;84.54;11.54
23643;BME280;11998;55.788;37.572;2023-07-13T03:38:42;97593.19;;;85.10;11.25
23643;BME280;11998;55.788;37.572;2023-07-13T03:39:43;97588.38;;;83.83;11.63
23643;BME280;11998;55.788;37.572;2023-07-13T03:40:43;97584.69;;;84.55;11.42
23643;BME280;11998;55.788;37.572;2023-07-13T03:41:44;97603.53;;;86.01;11.22
23643;BME280;11998;55.788;37.572;2023-07-13T03:42:44;97599.16;;;86.17;11.36
23643;BME280;11998;55.788;37.572;2023-07-13T03:43:45;97597.53;;;85.01;11.38
23643;BME280;11998;55.788;37.572;2023-07-13T03:44:45;97606.94;;;85.90;11.23
23643;BME280;11998;55.788;37.572;2023-07-13T03:45:52;97615.69;;;87.31;11.25
23643;BME280;11998;55.788;37.572;2023-07-13T03:46:52;97625.03;;;88.20;11.15
23643;BME280;11998;55.788;37.572;2023-07-13T03:47:53;97626.66;;;87.96;11.29
23643;BME280;11998;55.788;37.572;2023-07-13T03:48:53;97626.81;;;88.23;11.06
23643;BME280;11998;55.788;37.572;2023-07-13T03:49:54;97617.31;;;88.17;11.22
23643;BME280;11998;55.788;37.572;2023-07-13T03:50:54;97618.63;;;87.64;11.51
23643;BME280;11998;55.788;37.572;2023-07-13T03:51:55;97620.81;;;87.88;11.46
23643;BME280;11998;55.788;37.572;2023-07-13T03:52:57;97623.97;;;87.90;11.35
23643;BME280;11998;55.788;37.572;2023-07-13T03:53:58;97628.59;;;87.59;11.32
23643;BME280;11998;55.788;37.572;2023-07-13T03:54:58;97633.97;;;88.20;11.28
23643;BME280;11998;55.788;37.572;2023-07-13T03:55:59;97623.84;;;87.55;11.38
23643;BME280;11998;55.788;37.572;2023-07-13T03:56:59;97627.66;;;88.16;11.07
23643;BME280;11998;55.788;37.572;2023-07-13T03:58:28;97624.00;;;88.59;11.48
23643;BME280;11998;55.788;37.572;2023-07-13T03:59:29;97624.69;;;86.83;11.46
23643;BME280;11998;55.788;37.572;2023-07-13T04:00:30;97615.44;;;87.12;11.15
23643;BME280;11998;55.788;37.572;2023-07-13T04:01:31;97611.41;;;86.36;11.47
23643;BME280;11998;55.788;37.572;2023-07-13T04:02:31;97600.34;;;86.14;11.50
23643;BME280;11998;55.788;37.572;2023-07-13T04:03:32;97610.84;;;86.78;11.36
23643;BME280;11998;55.788;37.572;2023-07-13T04:04:33;97618.63;;;88.06;11.06
23643;BME280;11998;55.788;37.572;2023-07-13T04:05:34;97620.63;;;87.61;11.35
23643;BME280;11998;55.788;37.572;2023-07-13T04:06:34;97610.47;;;85.73;11.39
23643;BME280;11998;55.788;37.572;2023-07-13T04:07:35;97627.09;;;87.50;11.43
23643;BME280;11998;55.788;37.572;2023-07-13T04:08:36;97628.53;;;87.09;11.40
23643;BME280;11998;55.788;37.572;2023-07-13T04:09:37;97612.22;;;86.29;11.44
23643;BME280;11998;55.788;37.572;2023-07-13T04:10:37;97617.19;;;86.19;11.49
23643;BME280;11998;55.788;37.572;2023-07-13T04:11:39;97621.22;;;85.76;11.49
23643;BME280;11998;55.788;37.572;2023-07-13T04:12:39;97616.63;;;85.98;11.30
23643;BME280;11998;55.788;37.572;2023-07-13T04:13:40;97620.19;;;86.11;11.28
23643;BME280;11998;55.788;37.572;2023-07-13T04:14:40;97602.94;;;85.26;11.48
23643;BME280;11998;55.788;37.572;2023-07-13T04:15:41;97614.66;;;85.93;11.31
23643;BME280;11998;55.788;37.572;2023-07-13T04:16:42;97612.22;;;86.22;11.44
23643;BME280;11998;55.788;37.572;2023-07-13T04:17:42;97619.41;;;86.74;11.51
23643;BME280;11998;55.788;37.572;2023-07-13T04:18:43;97630.19;;;87.85;11.42
23643;BME280;11998;55.788;37.572;2023-07-13T04:19:44;97639.13;;;87.60;11.04
23643;BME280;11998;55.788;37.572;2023-07-13T04:20:46;97615.97;;;85.15;11.32
23643;BME280;11998;55.788;37.572;2023-07-13T04:21:47;97618.72;;;86.83;11.26
23643;BME280;11998;55.788;37.572;2023-07-13T04:22:47;97623.06;;;86.97;11.53
23643;BME280;11998;55.788;37.572;2023-07-13T04:23:48;97617.38;;;87.17;11.15
23643;BME280;11998;55.788;37.572;2023-07-13T04:24:48;97623.03;;;88.05;11.27
23643;BME280;11998;55.788;37.572;2023-07-13T04:25:51;97641.34;;;88.01;11.18
23643;BME280;11998;55.788;37.572;2023-07-13T04:26:55;97633.06;;;87.92;11.29
23643;BME280;11998;55.788;37.572;2023-07-13T04:27:59;97634.34;;;88.06;11.27
23643;BME280;11998;55.788;37.572;2023-07-13T04:29:00;97631.34;;;87.07;11.50
23643;BME280;11998;55.788;37.572;2023-07-13T04:30:00;97623.84;;;86.98;11.47
23643;BME280;11998;55.788;37.572;2023-07-13T04:31:01;97615.25;;;85.53;11.45
23643;BME280;11998;55.788;37.572;2023-07-13T04:32:01;97625.31;;;86.26;11.44
23643;BME280;11998;55.788;37.572;2023-07-13T04:33:02;97626.53;;;86.08;11.22
23643;BME280;11998;55.788;37.572;2023-07-13T04:34:02;97623.09;;;86.82;11.43
23643;BME280;11998;55.788;37.572;2023-07-13T04:35:03;97624.78;;;86.68;11.22
23643;BME280;11998;55.788;37.572;2023-07-13T04:36:05;97618.84;;;85.90;11.41
23643;BME280;11998;55.788;37.572;2023-07-13T04:37:05;97620.22;;;85.50;11.35
23643;BME280;11998;55.788;37.572;2023-07-13T04:38:06;97630.22;;;87.27;11.32
23643;BME280;11998;55.788;37.572;2023-07-13T04:39:07;97629.94;;;87.40;11.29
23643;BME280;11998;55.788;37.572;2023-07-13T04:40:08;97625.69;;;87.26;11.38
23643;BME280;11998;55.788;37.572;2023-07-13T04:41:13;97637.25;;;87.72;11.33
23643;BME280;11998;55.788;37.572;2023-07-13T04:42:14;97634.75;;;87.86;11.26
23643;BME280;11998;55.788;37.572;2023-07-13T04:43:15;97637.16;;;88.04;11.17
23643;BME280;11998;55.788;37.572;2023-07-13T04:44:15;97641.28;;;88.09;11.11
23643;BME280;11998;55.788;37.572;2023-07-13T04:45:17;97638.72;;;88.23;11.10
23643;BME280;11998;55.788;37.572;2023-07-13T04:46:18;97641.47;;;88.46;11.09
23643;BME280;11998;55.788;37.572;2023-07-13T04:47:19;97646.44;;;89.32;11.37
23643;BME280;11998;55.788;37.572;2023-07-13T04:48:20;97647.78;;;89.11;11.01
23643;BME280;11998;55.788;37.572;2023-07-13T04:49:21;97651.19;;;89.08;11.08
23643;BME280;11998;55.788;37.572;2023-07-13T04:50:21;97638.19;;;88.69;11.15
23643;BME280;11998;55.788;37.572;2023-07-13T04:51:23;97636.19;;;88.71;11.29
23643;BME280;11998;55.788;37.572;2023-07-13T04:52:24;97631.72;;;88.45;11.46
23643;BME280;11998;55.788;37.572;2023-07-13T04:53:25;97640.31;;;88.58;11.26
23643;BME280;11998;55.788;37.572;2023-07-13T04:54:26;97642.56;;;89.39;11.13
23643;BME280;11998;55.788;37.572;2023-07-13T04:55:27;97645.69;;;89.77;11.29
23643;BME280;11998;55.788;37.572;2023-07-13T04:56:30;97633.41;;;87.96;11.40
23643;BME280;11998;55.788;37.572;2023-07-13T04:57:31;97633.47;;;88.65;11.30
23643;BME280;11998;55.788;37.572;2023-07-13T04:58:33;97641.41;;;89.25;11.49
23643;BME280;11998;55.788;37.572;2023-07-13T04:59:34;97644.91;;;89.77;11.22
23643;BME280;11998;55.788;37.572;2023-07-13T05:00:35;97650.78;;;89.85;11.01
23643;BME280;11998;55.788;37.572;2023-07-13T05:01:35;97642.28;;;89.17;11.31
23643;BME280;11998;55.788;37.572;2023-07-13T05:02:38;97633.28;;;89.35;11.10
23643;BME280;11998;55.788;37.572;2023-07-13T05:03:39;97635.69;;;89.46;11.20
23643;BME280;11998;55.788;37.572;2023-07-13T05:04:39;97644.13;;;89.76;11.29
23643;BME280;11998;55.788;37.572;2023-07-13T05:05:40;97641.69;;;89.46;11.32
23643;BME280;11998;55.788;37.572;2023-07-13T05:06:40;97640.97;;;89.74;11.05
23643;BME280;11998;55.788;37.572;2023-07-13T05:07:41;97643.84;;;88.64;11.33
23643;BME280;11998;55.788;37.572;2023-07-13T05:08:41;97645.81;;;89.60;11.06
23643;BME280;11998;55.788;37.572;2023-07-13T05:09:42;97629.94;;;87.90;11.44
23643;BME280;11998;55.788;37.572;2023-07-13T05:10:42;97643.28;;;88.76;11.16
23643;BME280;11998;55.788;37.572;2023-07-13T05:11:43;97649.84;;;89.18;11.22
23643;BME280;11998;55.788;37.572;2023-07-13T05:12:44;97646.97;;;89.74;11.17
23643;BME280;11998;55.788;37.572;2023-07-13T05:13:45;97650.19;;;90.15;11.26
23643;BME280;11998;55.788;37.572;2023-07-13T05:14:45;97651.78;;;89.24;11.39
23643;BME280;11998;55.788;37.572;2023-07-13T05:15:52;97636.44;;;88.14;11.32
23643;BME280;11998;55.788;37.572;2023-07-13T05:16:55;97632.06;;;86.04;11.50
23643;BME280;11998;55.788;37.572;2023-07-13T05:17:57;97635.88;;;87.40;11.43
23643;BME280;11998;55.788;37.572;2023-07-13T05:18:58;97644.66;;;87.88;11.42
23643;BME280;11998;55.788;37.572;2023-07-13T05:19:58;97633.41;;;87.96;11.36
23643;BME280;11998;55.788;37.572;2023-07-13T05:21:02;97628.09;;;86.09;11.43
23643;BME280;11998;55.788;37.572;2023-07-13T05:22:03;97616.78;;;86.30;11.50